createdAt,value
2018-06-20T00:04:51.029Z,4.79
2018-06-20T00:10:51.687Z,4.85
2018-06-20T00:14:52.471Z,4.62
2018-06-20T00:20:53.380Z,4.93
2018-06-20T00:24:54.137Z,5.01
2018-06-20T00:26:54.793Z,5.05
2018-06-20T00:30:55.548Z,4.44
2018-06-20T00:36:56.214Z,4.4
2018-06-20T00:40:56.908Z,4.08
2018-06-20T00:46:57.985Z,4.66
2018-06-20T00:52:58.730Z,5.86
2018-06-20T00:56:59.465Z,3.33
2018-06-20T01:03:00.177Z,4.96
2018-06-20T01:07:00.870Z,4.23
2018-06-20T01:09:01.542Z,6.98
2018-06-20T01:13:02.223Z,4.43
2018-06-20T01:19:03.035Z,5.11
2018-06-20T01:23:03.851Z,5.1
2018-06-20T01:29:04.660Z,4.4
2018-06-20T01:33:05.387Z,4.38
2018-06-20T01:35:06.180Z,5.8
2018-06-20T01:39:06.885Z,5.75
2018-06-20T01:45:07.638Z,5.23
2018-06-20T01:49:08.353Z,4.72
2018-06-20T01:55:09.075Z,4.62
2018-06-20T02:01:09.854Z,5.01
2018-06-20T02:05:10.603Z,4.3
2018-06-20T02:11:11.410Z,5.27
2018-06-20T02:15:12.604Z,5.7
2018-06-20T02:17:13.250Z,5.07
2018-06-20T02:21:13.883Z,4.54
2018-06-20T02:27:14.554Z,4.5
2018-06-20T02:31:15.353Z,4.52
2018-06-20T02:37:16.094Z,5.01
2018-06-20T02:43:16.865Z,5.54
2018-06-20T02:47:17.586Z,4.75
2018-06-20T02:53:18.364Z,5.12
2018-06-20T02:57:19.106Z,5.99
2018-06-20T02:59:19.827Z,8.19
2018-06-20T03:03:20.536Z,5.93
2018-06-20T03:09:21.303Z,5.69
2018-06-20T03:13:22.144Z,6.64
2018-06-20T03:19:22.896Z,5.73
2018-06-20T03:23:23.620Z,5.67
2018-06-20T03:25:24.395Z,6.9
2018-06-20T03:29:25.126Z,5.39
2018-06-20T03:35:25.946Z,6.74
2018-06-20T03:39:26.773Z,4.49
2018-06-20T03:45:28.146Z,7.59
2018-06-20T03:51:28.978Z,7.58
2018-06-20T03:55:29.911Z,5.64
2018-06-20T04:01:30.651Z,8.15
2018-06-20T04:05:31.477Z,6.01
2018-06-20T04:07:32.172Z,8.14
2018-06-20T04:11:32.956Z,6.72
2018-06-20T04:17:33.771Z,5.91
2018-06-20T04:21:34.486Z,6.24
2018-06-20T04:27:35.191Z,7.33
2018-06-20T04:33:35.955Z,7.58
2018-06-20T04:37:36.697Z,6.99
2018-06-20T04:43:37.482Z,6.08
2018-06-20T04:47:38.332Z,7.22
2018-06-20T04:53:39.063Z,7.21
2018-06-20T04:59:39.853Z,7.59
2018-06-20T05:03:40.753Z,8.31
2018-06-20T05:09:41.662Z,7.75
2018-06-20T05:13:42.448Z,7.02
2018-06-20T05:15:43.174Z,8.47
2018-06-20T05:19:43.901Z,7.95
2018-06-20T05:25:44.603Z,8.09
2018-06-20T05:29:45.490Z,7.95
2018-06-20T05:35:46.315Z,7.76
2018-06-20T05:41:47.135Z,7.53
2018-06-20T05:45:47.892Z,6.87
2018-06-20T05:51:48.696Z,7.09
2018-06-20T05:55:49.521Z,6.72
2018-06-20T05:57:50.278Z,6.74
2018-06-20T06:01:51.007Z,5.88
2018-06-20T06:07:51.785Z,7.07
2018-06-20T06:11:52.623Z,8.56
2018-06-20T06:17:53.321Z,6.64
2018-06-20T06:21:54.035Z,6.29
2018-06-20T06:23:54.818Z,7.53
2018-06-20T06:27:55.613Z,5.34
2018-06-20T06:33:56.273Z,5.63
2018-06-20T06:37:57.010Z,7.51
2018-06-20T06:43:57.885Z,4.07
2018-06-20T06:49:58.748Z,4.14
2018-06-20T06:53:59.308Z,4.63
2018-06-20T07:00:00.129Z,4.39
2018-06-20T07:04:00.860Z,3.98
2018-06-20T07:06:01.682Z,3.95
2018-06-20T07:10:02.440Z,3.9
2018-06-20T07:16:03.249Z,5.04
2018-06-20T07:20:04.566Z,3.71
2018-06-20T07:26:05.119Z,5.67
2018-06-20T07:32:05.878Z,4.63
2018-06-20T07:36:06.745Z,4.12
2018-06-20T07:42:07.396Z,4.52
2018-06-20T07:46:08.275Z,5.05
2018-06-20T07:52:09.006Z,4.15
2018-06-20T07:58:09.770Z,4.79
2018-06-20T08:02:10.585Z,6.22
2018-06-20T08:08:11.257Z,4.35
2018-06-20T08:12:12.237Z,3.76
2018-06-20T08:14:12.808Z,5.48
2018-06-20T08:18:13.638Z,4.01
2018-06-20T08:24:14.298Z,4.05
2018-06-20T08:28:15.055Z,4.47
2018-06-20T08:34:15.916Z,3.64
2018-06-20T08:40:16.813Z,3.87
2018-06-20T08:44:17.573Z,5.44
2018-06-20T08:50:18.225Z,5.92
2018-06-20T08:54:19.043Z,6.57
2018-06-20T08:56:19.856Z,4.67
2018-06-20T09:00:20.979Z,4.37
2018-06-20T09:06:21.753Z,4.99
2018-06-20T09:10:22.630Z,4.96
2018-06-20T09:16:23.332Z,3.77
2018-06-20T09:22:24.099Z,4.53
2018-06-20T09:26:25.060Z,4.07
2018-06-20T09:32:26.085Z,4.77
2018-06-20T09:36:27.005Z,4.33
2018-06-20T09:42:27.719Z,4.55
2018-06-20T09:48:28.424Z,3.89
2018-06-20T09:52:29.056Z,4.09
2018-06-20T09:58:29.875Z,4.84
2018-06-20T10:02:30.629Z,4.08
2018-06-20T10:04:31.289Z,4.07
2018-06-20T10:08:32.180Z,3.69
2018-06-20T10:14:33.051Z,3.98
2018-06-20T10:18:33.939Z,4.19
2018-06-20T10:24:34.709Z,4.35
2018-06-20T10:30:35.931Z,3.48
2018-06-20T10:34:36.718Z,3.5
2018-06-20T10:40:37.472Z,3.77
2018-06-20T10:44:38.273Z,3.93
2018-06-20T10:46:38.982Z,4.71
2018-06-20T10:50:39.712Z,4.47
2018-06-20T10:56:40.506Z,4.2
2018-06-20T11:00:41.260Z,4.39
2018-06-20T11:06:42.225Z,3.88
2018-06-20T11:12:43.014Z,3.96
2018-06-20T11:16:43.750Z,4.98
2018-06-20T11:22:44.555Z,3.8
2018-06-20T11:26:45.409Z,3.97
2018-06-20T11:28:46.026Z,4.08
2018-06-20T11:32:46.807Z,3.99
2018-06-20T11:38:47.578Z,5.18
2018-06-20T11:42:48.410Z,5.82
2018-06-20T11:48:49.116Z,4.32
2018-06-20T11:54:49.960Z,4.43
2018-06-20T11:58:50.905Z,4.83
2018-06-20T12:04:51.883Z,3.89
2018-06-20T12:08:52.747Z,4.17
2018-06-20T12:14:53.513Z,4.02
2018-06-20T12:20:54.305Z,4.29
2018-06-20T12:24:55.069Z,5.22
2018-06-20T12:30:55.947Z,4.04
2018-06-20T12:34:56.652Z,3.89
2018-06-20T12:36:57.332Z,3.93
2018-06-20T12:40:58.194Z,3.81
2018-06-20T12:46:58.893Z,5.69
2018-06-20T12:50:59.536Z,5.18
2018-06-20T12:57:00.231Z,4.17
2018-06-20T13:03:06.751Z,5.29
2018-06-20T13:07:07.497Z,4.32
2018-06-20T13:13:08.266Z,4.9
2018-06-20T13:17:08.966Z,4.94
2018-06-20T13:19:09.785Z,4.23
2018-06-20T13:23:10.541Z,4.58
2018-06-20T13:29:11.310Z,5.07
2018-06-20T13:33:12.090Z,4.77
2018-06-20T13:39:12.876Z,5.58
2018-06-20T13:43:13.631Z,4.47
2018-06-20T13:45:14.969Z,4.64
2018-06-20T13:49:15.720Z,5.24
2018-06-20T13:55:16.453Z,4.81
2018-06-20T13:59:17.348Z,5.74
2018-06-20T14:05:18.104Z,7.65
2018-06-20T14:11:18.862Z,4.17
2018-06-20T14:15:20.304Z,4.57
2018-06-20T14:21:21.132Z,5.7
2018-06-20T14:25:21.826Z,5.87
2018-06-20T14:27:22.598Z,7.16
2018-06-20T14:31:23.377Z,8.53
2018-06-20T14:37:24.109Z,4.11
2018-06-20T14:41:24.860Z,4.2
2018-06-20T14:47:25.513Z,5.44
2018-06-20T14:53:26.212Z,3.71
2018-06-20T14:57:27.049Z,3.6
2018-06-20T15:03:27.758Z,6.59
2018-06-20T15:07:28.586Z,4.95
2018-06-20T15:09:29.247Z,4.44
2018-06-20T15:13:30.023Z,4.49
2018-06-20T15:19:30.663Z,5.21
2018-06-20T15:23:31.497Z,3.82
2018-06-20T15:29:32.243Z,4.49
2018-06-20T15:35:33.172Z,4.5
2018-06-20T15:39:33.899Z,4.22
2018-06-20T15:45:34.829Z,4.31
2018-06-20T15:49:35.566Z,4.33
2018-06-20T15:55:36.235Z,3.45
2018-06-20T16:01:37.119Z,4.74
2018-06-20T16:05:37.960Z,4.95
2018-06-20T16:11:38.612Z,4.53
2018-06-20T16:15:39.343Z,4.66
2018-06-20T16:17:40.139Z,5.01
2018-06-20T16:21:40.832Z,4.15
2018-06-20T16:27:41.635Z,4.92
2018-06-20T16:31:43.064Z,4.64
2018-06-20T16:37:43.992Z,5.44
2018-06-20T16:43:44.886Z,4.54
2018-06-20T16:47:45.689Z,4.81
2018-06-20T16:53:46.562Z,4.33
2018-06-20T16:57:47.289Z,4.34
2018-06-20T16:59:48.306Z,4.84
2018-06-20T17:03:49.074Z,4.72
2018-06-20T17:09:49.976Z,5.34
2018-06-20T17:13:50.787Z,5.28
2018-06-20T17:19:51.656Z,4.48
2018-06-20T17:25:52.719Z,5.67
2018-06-20T17:29:53.411Z,4.51
2018-06-20T17:35:54.313Z,4.45
2018-06-20T17:39:55.053Z,4.98
2018-06-20T17:41:55.894Z,4.92
2018-06-20T17:45:56.651Z,5.18
2018-06-20T17:51:57.493Z,4.91
2018-06-20T17:55:58.352Z,4.94
2018-06-20T18:02:00.717Z,5.37
2018-06-20T18:06:01.577Z,5.07
2018-06-20T18:08:02.297Z,4.88
2018-06-20T18:12:03.125Z,4.65
2018-06-20T18:18:04.101Z,5.76
2018-06-20T18:22:04.777Z,4.94
2018-06-20T18:28:05.565Z,5.4
2018-06-20T18:32:06.375Z,4.82
2018-06-20T18:34:09.630Z,7.74
2018-06-20T18:38:13.015Z,6.18
2018-06-20T18:44:16.313Z,6.37
2018-06-20T18:48:17.358Z,5.54
2018-06-20T18:54:18.108Z,5.94
2018-06-20T18:58:18.860Z,5.54
2018-06-20T19:04:19.594Z,5.44
2018-06-20T19:10:20.407Z,5.59
2018-06-20T19:14:21.415Z,5.83
2018-06-20T19:20:22.339Z,6.6
2018-06-20T19:24:23.055Z,6.16
2018-06-20T19:26:23.723Z,5.63
2018-06-20T19:30:25.379Z,5.46
2018-06-20T19:36:26.365Z,5.58
2018-06-20T19:40:27.188Z,5.33
2018-06-20T19:46:28.026Z,6.04
2018-06-20T19:50:28.857Z,5.45
2018-06-20T19:52:29.611Z,5.35
2018-06-20T19:56:30.450Z,5.63
2018-06-20T20:02:31.245Z,6.36
2018-06-20T20:06:32.025Z,6.27
2018-06-20T20:12:32.861Z,6.1
2018-06-20T20:16:33.555Z,5.84
2018-06-20T20:18:34.275Z,6.81
2018-06-20T20:22:35.099Z,5.91
2018-06-20T20:28:35.864Z,6.8
2018-06-20T20:32:36.661Z,6.7
2018-06-20T20:38:37.626Z,8.37
2018-06-20T20:42:38.310Z,9.74
2018-06-20T20:44:39.074Z,10.33
2018-06-20T20:48:39.784Z,9.64
2018-06-20T20:54:40.445Z,8.85
2018-06-20T20:58:41.224Z,7.85
2018-06-20T21:04:42.170Z,8.41
2018-06-20T21:08:43.343Z,7.81
2018-06-20T21:10:44.091Z,10.3
2018-06-20T21:14:44.727Z,10.21
2018-06-20T21:20:45.525Z,8.99
2018-06-20T21:24:46.255Z,9.93
2018-06-20T21:30:46.939Z,9.92
2018-06-20T21:36:47.699Z,8.32
2018-06-20T21:40:48.822Z,9.18
2018-06-20T21:46:49.663Z,9.32
2018-06-20T21:50:50.814Z,8.21
2018-06-20T21:56:51.542Z,12.13
2018-06-20T22:02:52.325Z,8.83
2018-06-20T22:06:53.130Z,8.27
2018-06-20T22:12:53.872Z,9.83
2018-06-20T22:16:54.627Z,8.45
2018-06-20T22:22:55.426Z,5.99
2018-06-20T22:28:56.220Z,6.8
2018-06-20T22:32:57.058Z,7.5
2018-06-20T22:38:57.809Z,9.19
2018-06-20T22:42:58.436Z,11.91
2018-06-20T22:48:59.181Z,9.83
2018-06-20T22:54:59.914Z,10.06
2018-06-20T22:59:00.716Z,10.06
2018-06-20T23:05:01.515Z,11.24
2018-06-20T23:09:02.307Z,10.4
2018-06-20T23:15:03.054Z,10.11
2018-06-20T23:21:03.781Z,9.8
2018-06-20T23:25:04.528Z,11.01
2018-06-20T23:31:05.225Z,10.27
2018-06-20T23:35:05.892Z,9.61
2018-06-20T23:37:06.609Z,9.62
2018-06-20T23:41:07.371Z,10.24
2018-06-20T23:47:08.088Z,10.15
2018-06-20T23:51:08.780Z,9.78
2018-06-20T23:57:09.593Z,10.11
